createdAt,value
2017-05-04T00:02:12.841Z,57.22
2017-05-04T00:04:40.540Z,56.48
2017-05-04T00:07:08.173Z,57.42
2017-05-04T00:09:35.978Z,58.58
2017-05-04T00:12:03.745Z,62.03
2017-05-04T00:14:31.279Z,61.95
2017-05-04T00:16:58.840Z,62.88
2017-05-04T00:19:26.418Z,64.15
2017-05-04T00:21:53.911Z,58.50
2017-05-04T00:24:21.496Z,56.78
2017-05-04T00:26:49.098Z,60.22
2017-05-04T00:29:17.372Z,60.92
2017-05-04T00:31:46.485Z,60.42
2017-05-04T00:34:14.148Z,59.83
2017-05-04T00:36:41.728Z,58.43
2017-05-04T00:39:09.555Z,59.65
2017-05-04T00:41:37.845Z,57.32
2017-05-04T00:44:05.795Z,58.32
2017-05-04T00:46:34.112Z,59.03
2017-05-04T00:49:02.116Z,54.78
2017-05-04T00:51:29.693Z,59.72
2017-05-04T00:53:57.955Z,56.98
2017-05-04T00:56:25.803Z,59.47
2017-05-04T00:58:53.383Z,57.88
2017-05-04T01:01:20.972Z,55.07
2017-05-04T01:03:48.479Z,63.97
2017-05-04T01:06:16.362Z,61.53
2017-05-04T01:08:43.882Z,55.57
2017-05-04T01:11:11.635Z,56.92
2017-05-04T01:13:39.204Z,55.32
2017-05-04T01:16:07.984Z,61.23
2017-05-04T01:18:35.547Z,57.63
2017-05-04T01:21:03.075Z,56.80
2017-05-04T01:23:30.627Z,60.03
2017-05-04T01:25:58.389Z,57.82
2017-05-04T01:28:26.069Z,54.72
2017-05-04T01:30:53.595Z,58.63
2017-05-04T01:33:22.174Z,56.43
2017-05-04T01:35:50.527Z,51.53
2017-05-04T01:38:18.313Z,58.50
2017-05-04T01:40:46.597Z,46.62
2017-05-04T01:43:14.322Z,51.57
2017-05-04T01:45:42.132Z,51.40
2017-05-04T01:48:10.216Z,51.67
2017-05-04T01:50:37.967Z,53.68
2017-05-04T01:53:05.614Z,57.38
2017-05-04T01:55:34.418Z,52.25
2017-05-04T01:58:01.924Z,56.53
2017-05-04T02:00:29.520Z,59.18
2017-05-04T02:02:57.027Z,58.23
2017-05-04T02:05:24.523Z,58.32
2017-05-04T02:07:52.871Z,60.20
2017-05-04T02:10:20.364Z,60.40
2017-05-04T02:12:47.889Z,59.08
2017-05-04T02:15:15.620Z,56.60
2017-05-04T02:17:43.427Z,52.70
2017-05-04T02:20:12.376Z,54.80
2017-05-04T02:22:39.868Z,58.53
2017-05-04T02:25:07.485Z,52.34
2017-05-04T02:27:35.007Z,50.05
2017-05-04T02:30:02.572Z,52.98
2017-05-04T02:32:30.218Z,53.17
2017-05-04T02:34:58.054Z,56.62
2017-05-04T02:37:26.416Z,55.50
2017-05-04T02:39:53.962Z,55.93
2017-05-04T02:42:21.719Z,58.02
2017-05-04T02:44:49.420Z,55.92
2017-05-04T02:47:16.916Z,56.93
2017-05-04T02:49:44.542Z,62.78
2017-05-04T02:52:12.036Z,63.70
2017-05-04T02:54:39.611Z,57.48
2017-05-04T02:57:07.440Z,61.90
2017-05-04T02:59:34.964Z,64.30
2017-05-04T03:02:02.498Z,65.80
2017-05-04T03:04:30.032Z,68.15
2017-05-04T03:06:57.599Z,70.10
2017-05-04T03:09:25.108Z,64.65
2017-05-04T03:11:53.424Z,68.87
2017-05-04T03:14:21.040Z,67.35
2017-05-04T03:16:49.305Z,77.33
2017-05-04T03:19:16.890Z,78.35
2017-05-04T03:21:45.168Z,83.63
2017-05-04T03:24:13.191Z,69.07
2017-05-04T03:26:40.969Z,75.15
2017-05-04T03:29:08.467Z,73.25
2017-05-04T03:31:36.245Z,70.55
2017-05-04T03:34:03.820Z,70.60
2017-05-04T03:36:31.427Z,76.90
2017-05-04T03:38:59.767Z,65.40
2017-05-04T03:41:27.516Z,66.37
2017-05-04T03:43:55.161Z,63.25
2017-05-04T03:46:22.683Z,71.25
2017-05-04T03:48:50.968Z,69.68
2017-05-04T03:51:18.744Z,67.95
2017-05-04T03:53:46.443Z,71.72
2017-05-04T03:56:14.231Z,67.47
2017-05-04T03:58:42.766Z,67.97
2017-05-04T04:01:10.273Z,71.05
2017-05-04T04:03:38.647Z,69.03
2017-05-04T04:06:06.957Z,64.52
2017-05-04T04:08:34.760Z,70.83
2017-05-04T04:11:02.421Z,67.12
2017-05-04T04:13:30.319Z,60.92
2017-05-04T04:15:58.521Z,60.80
2017-05-04T04:18:26.096Z,61.72
2017-05-04T04:20:53.705Z,66.72
2017-05-04T04:23:22.018Z,65.02
2017-05-04T04:25:49.548Z,69.98
2017-05-04T04:28:17.983Z,65.78
2017-05-04T04:30:45.620Z,66.63
2017-05-04T04:33:13.360Z,63.65
2017-05-04T04:35:41.347Z,65.70
2017-05-04T04:38:08.877Z,63.15
2017-05-04T04:40:36.627Z,69.63
2017-05-04T04:43:04.950Z,70.07
2017-05-04T04:45:32.921Z,79.30
2017-05-04T04:48:00.455Z,84.50
2017-05-04T04:50:27.983Z,90.82
2017-05-04T04:52:56.263Z,94.22
2017-05-04T04:55:24.530Z,88.53
2017-05-04T04:57:52.868Z,86.55
2017-05-04T05:00:20.359Z,86.40
2017-05-04T05:02:48.620Z,89.77
2017-05-04T05:05:16.511Z,90.13
2017-05-04T05:07:44.780Z,86.48
2017-05-04T05:10:13.146Z,89.08
2017-05-04T05:12:40.884Z,91.55
2017-05-04T05:15:08.599Z,89.50
2017-05-04T05:17:36.344Z,91.73
2017-05-04T05:20:04.823Z,95.95
2017-05-04T05:22:33.348Z,88.87
2017-05-04T05:25:01.000Z,107.98
2017-05-04T05:27:29.162Z,95.80
2017-05-04T05:29:56.828Z,91.80
2017-05-04T05:32:24.637Z,101.58
2017-05-04T05:34:52.219Z,107.72
2017-05-04T05:37:20.486Z,104.02
2017-05-04T05:39:48.923Z,102.68
2017-05-04T05:42:16.712Z,108.33
2017-05-04T05:44:44.207Z,106.75
2017-05-04T05:47:11.727Z,104.13
2017-05-04T05:49:39.548Z,102.63
2017-05-04T05:52:07.123Z,95.40
2017-05-04T05:54:34.730Z,88.05
2017-05-04T05:57:02.992Z,80.53
2017-05-04T05:59:31.376Z,89.75
2017-05-04T06:01:59.704Z,82.95
2017-05-04T06:04:27.205Z,91.73
2017-05-04T06:06:55.716Z,94.27
2017-05-04T06:09:23.723Z,82.65
2017-05-04T06:11:51.287Z,77.07
2017-05-04T06:14:18.791Z,68.72
2017-05-04T06:16:46.367Z,67.87
2017-05-04T06:19:13.880Z,69.38
2017-05-04T06:21:42.201Z,69.92
2017-05-04T06:24:09.780Z,62.38
2017-05-04T06:26:38.023Z,64.23
2017-05-04T06:29:05.536Z,60.13
2017-05-04T06:31:33.363Z,75.18
2017-05-04T06:34:01.216Z,70.87
2017-05-04T06:36:30.096Z,60.40
2017-05-04T06:38:57.751Z,63.18
2017-05-04T06:41:25.528Z,57.63
2017-05-04T06:43:53.098Z,54.80
2017-05-04T06:46:20.923Z,57.92
2017-05-04T06:48:48.842Z,51.90
2017-05-04T06:51:16.342Z,53.80
2017-05-04T06:53:43.836Z,52.13
2017-05-04T06:56:11.346Z,47.98
2017-05-04T06:58:38.973Z,50.53
2017-05-04T07:01:07.050Z,54.15
2017-05-04T07:03:34.947Z,50.62
2017-05-04T07:06:03.367Z,44.32
2017-05-04T07:08:31.859Z,46.38
2017-05-04T07:10:59.548Z,45.77
2017-05-04T07:13:27.338Z,45.38
2017-05-04T07:15:54.852Z,54.03
2017-05-04T07:18:22.428Z,47.27
2017-05-04T07:20:50.011Z,43.38
2017-05-04T07:23:17.524Z,47.60
2017-05-04T07:25:45.281Z,40.13
2017-05-04T07:28:13.262Z,40.40
2017-05-04T07:30:41.540Z,38.23
2017-05-04T07:33:09.149Z,42.80
2017-05-04T07:35:36.796Z,39.50
2017-05-04T07:38:04.337Z,44.07
2017-05-04T07:40:32.731Z,44.25
2017-05-04T07:43:00.239Z,40.05
2017-05-04T07:45:27.819Z,34.82
2017-05-04T07:47:56.103Z,35.03
2017-05-04T07:50:24.477Z,35.45
2017-05-04T07:52:52.763Z,35.38
2017-05-04T07:55:20.296Z,39.22
2017-05-04T07:57:48.615Z,33.20
2017-05-04T08:00:16.269Z,37.15
2017-05-04T08:02:43.894Z,33.43
2017-05-04T08:05:12.183Z,35.68
2017-05-04T08:07:39.784Z,36.42
2017-05-04T08:10:07.436Z,38.53
2017-05-04T08:12:35.186Z,39.72
2017-05-04T08:15:02.706Z,37.72
2017-05-04T08:17:31.494Z,36.58
2017-05-04T08:20:00.441Z,31.18
2017-05-04T08:22:28.130Z,33.13
2017-05-04T08:24:55.698Z,33.74
2017-05-04T08:27:24.250Z,35.10
2017-05-04T08:29:51.865Z,39.53
2017-05-04T08:32:19.771Z,37.57
2017-05-04T08:34:47.492Z,36.03
2017-05-04T08:37:15.103Z,38.93
2017-05-04T08:39:42.631Z,37.35
2017-05-04T08:42:10.306Z,36.07
2017-05-04T08:44:38.043Z,36.78
2017-05-04T08:47:05.562Z,41.87
2017-05-04T08:49:34.232Z,34.43
2017-05-04T08:52:02.677Z,35.63
2017-05-04T08:54:30.212Z,36.05
2017-05-04T08:56:58.023Z,37.62
2017-05-04T08:59:25.573Z,33.82
2017-05-04T09:01:53.403Z,43.02
2017-05-04T09:04:20.971Z,35.97
2017-05-04T09:06:48.756Z,32.80
2017-05-04T09:09:16.327Z,34.65
2017-05-04T09:11:43.894Z,33.02
2017-05-04T09:14:11.518Z,29.62
2017-05-04T09:16:39.143Z,29.42
2017-05-04T09:19:06.715Z,29.88
2017-05-04T09:21:34.302Z,32.40
2017-05-04T09:24:02.070Z,29.85
2017-05-04T09:26:30.815Z,32.47
2017-05-04T09:28:58.344Z,30.62
2017-05-04T09:31:26.644Z,28.07
2017-05-04T09:33:54.192Z,27.58
2017-05-04T09:36:21.743Z,32.48
2017-05-04T09:38:49.611Z,29.88
2017-05-04T09:41:18.254Z,35.98
2017-05-04T09:43:45.829Z,34.58
2017-05-04T09:46:13.371Z,29.97
2017-05-04T09:48:40.945Z,33.15
2017-05-04T09:51:08.731Z,39.52
2017-05-04T09:53:36.430Z,31.35
2017-05-04T09:56:03.955Z,34.70
2017-05-04T09:58:31.506Z,36.16
2017-05-04T10:00:59.851Z,27.22
2017-05-04T10:03:27.525Z,30.70
2017-05-04T10:05:55.128Z,30.80
2017-05-04T10:08:22.922Z,26.23
2017-05-04T10:10:50.494Z,28.68
2017-05-04T10:13:18.403Z,25.53
2017-05-04T10:15:46.186Z,24.32
2017-05-04T10:18:13.721Z,26.70
2017-05-04T10:20:41.503Z,23.68
2017-05-04T10:23:09.042Z,23.73
2017-05-04T10:25:36.571Z,24.32
2017-05-04T10:28:05.118Z,21.77
2017-05-04T10:30:32.906Z,23.12
2017-05-04T10:33:00.454Z,27.45
2017-05-04T10:35:27.987Z,25.82
2017-05-04T10:37:55.554Z,29.83
2017-05-04T10:40:23.147Z,26.97
2017-05-04T10:42:51.440Z,31.92
2017-05-04T10:45:19.088Z,31.20
2017-05-04T10:47:47.644Z,27.75
2017-05-04T10:50:15.640Z,33.68
2017-05-04T10:52:43.179Z,34.30
2017-05-04T10:55:11.198Z,36.57
2017-05-04T10:57:39.051Z,34.98
2017-05-04T11:00:06.667Z,38.45
2017-05-04T11:02:34.444Z,38.40
2017-05-04T11:05:02.777Z,38.88
2017-05-04T11:07:30.312Z,42.25
2017-05-04T11:09:57.940Z,36.35
2017-05-04T11:12:26.249Z,35.58
2017-05-04T11:14:53.860Z,35.35
2017-05-04T11:17:21.706Z,39.47
2017-05-04T11:19:49.306Z,47.07
2017-05-04T11:22:17.113Z,43.62
2017-05-04T11:24:44.928Z,41.22
2017-05-04T11:27:13.219Z,48.43
2017-05-04T11:29:40.980Z,48.37
2017-05-04T11:32:09.310Z,51.72
2017-05-04T11:34:37.715Z,52.02
2017-05-04T11:37:06.039Z,66.00
2017-05-04T11:39:33.573Z,57.80
2017-05-04T11:42:01.136Z,62.15
2017-05-04T11:44:28.893Z,63.05
2017-05-04T11:46:56.463Z,73.42
2017-05-04T11:49:24.226Z,61.80
2017-05-04T11:51:51.788Z,60.47
2017-05-04T11:54:19.408Z,57.30
2017-05-04T11:56:47.716Z,51.75
2017-05-04T11:59:15.363Z,46.08
2017-05-04T12:01:42.884Z,50.05
2017-05-04T12:04:10.402Z,50.25
2017-05-04T12:06:37.955Z,59.77
2017-05-04T12:09:05.507Z,46.67
2017-05-04T12:11:33.340Z,49.10
2017-05-04T12:14:01.628Z,55.65
2017-05-04T12:16:29.155Z,42.95
2017-05-04T12:18:57.513Z,45.35
2017-05-04T12:21:25.046Z,50.45
2017-05-04T12:23:52.907Z,47.10
2017-05-04T12:26:20.459Z,49.65
2017-05-04T12:28:48.883Z,47.00
2017-05-04T12:31:16.678Z,46.73
2017-05-04T12:33:44.250Z,51.65
2017-05-04T12:36:11.791Z,59.97
2017-05-04T12:38:39.354Z,56.30
2017-05-04T12:41:06.931Z,60.18
2017-05-04T12:43:34.460Z,70.00
2017-05-04T12:46:02.025Z,63.48
2017-05-04T12:48:29.556Z,67.80
2017-05-04T12:50:57.865Z,56.25
2017-05-04T12:53:25.455Z,66.93
2017-05-04T12:55:53.023Z,74.80
2017-05-04T12:58:20.605Z,65.13
2017-05-04T13:00:48.166Z,60.97
2017-05-04T13:03:16.559Z,59.90
2017-05-04T13:05:44.145Z,57.77
2017-05-04T13:08:12.013Z,67.35
2017-05-04T13:10:39.607Z,63.77
2017-05-04T13:13:07.336Z,59.02
2017-05-04T13:15:35.106Z,62.30
2017-05-04T13:18:02.914Z,60.83
2017-05-04T13:20:31.230Z,55.07
2017-05-04T13:22:59.016Z,65.37
2017-05-04T13:25:26.787Z,63.03
2017-05-04T13:27:54.364Z,59.38
2017-05-04T13:30:22.739Z,57.67
2017-05-04T13:32:50.299Z,58.92
2017-05-04T13:35:17.875Z,60.85
2017-05-04T13:37:46.195Z,66.18
2017-05-04T13:40:13.767Z,63.00
2017-05-04T13:42:41.359Z,56.13
2017-05-04T13:45:09.671Z,57.65
2017-05-04T13:47:37.259Z,55.75
2017-05-04T13:50:04.790Z,57.58
2017-05-04T13:52:32.556Z,59.03
2017-05-04T13:55:00.178Z,53.02
2017-05-04T13:57:28.487Z,66.50
2017-05-04T13:59:56.298Z,59.13
2017-05-04T14:02:23.874Z,54.40
2017-05-04T14:04:52.417Z,51.43
2017-05-04T14:07:19.952Z,56.93
2017-05-04T14:09:47.539Z,62.70
2017-05-04T14:12:15.060Z,62.33
2017-05-04T14:14:42.603Z,64.33
2017-05-04T14:17:10.122Z,61.75
2017-05-04T14:19:37.731Z,58.90
2017-05-04T14:22:05.259Z,52.55
2017-05-04T14:24:33.567Z,59.75
2017-05-04T14:27:01.091Z,61.25
2017-05-04T14:29:29.436Z,59.58
2017-05-04T14:31:57.032Z,57.97
2017-05-04T14:34:24.646Z,60.93
2017-05-04T14:36:52.407Z,53.00
2017-05-04T14:39:19.943Z,58.47
2017-05-04T14:41:47.524Z,60.85
2017-05-04T14:44:15.122Z,52.20
2017-05-04T14:46:43.652Z,49.57
2017-05-04T14:49:11.234Z,52.18
2017-05-04T14:51:38.783Z,50.48
2017-05-04T14:54:06.379Z,52.43
2017-05-04T14:56:34.686Z,49.03
2017-05-04T14:59:02.438Z,50.27
2017-05-04T15:01:30.010Z,53.28
2017-05-04T15:03:57.553Z,51.12
2017-05-04T15:06:25.099Z,54.40
2017-05-04T15:08:52.965Z,56.30
2017-05-04T15:11:20.882Z,60.43
2017-05-04T15:13:48.468Z,55.68
2017-05-04T15:16:16.784Z,54.47
2017-05-04T15:18:44.553Z,53.25
2017-05-04T15:21:12.129Z,50.60
2017-05-04T15:23:39.684Z,53.38
2017-05-04T15:26:07.311Z,53.92
2017-05-04T15:28:34.916Z,57.75
2017-05-04T15:31:02.495Z,57.35
2017-05-04T15:33:30.812Z,65.68
2017-05-04T15:35:58.361Z,67.38
2017-05-04T15:38:26.156Z,62.42
2017-05-04T15:40:53.711Z,61.32
2017-05-04T15:43:21.524Z,56.75
2017-05-04T15:45:49.846Z,57.37
2017-05-04T15:48:17.406Z,59.62
2017-05-04T15:50:44.999Z,57.70
2017-05-04T15:53:13.311Z,57.20
2017-05-04T15:55:41.068Z,63.75
2017-05-04T15:58:08.628Z,57.60
2017-05-04T16:00:36.170Z,52.20
2017-05-04T16:03:04.012Z,48.87
2017-05-04T16:05:31.747Z,54.17
2017-05-04T16:07:59.331Z,59.97
2017-05-04T16:10:26.891Z,55.17
2017-05-04T16:12:54.423Z,58.83
2017-05-04T16:15:21.949Z,56.80
2017-05-04T16:17:49.735Z,63.40
2017-05-04T16:20:17.540Z,51.58
2017-05-04T16:22:45.847Z,58.25
2017-05-04T16:25:13.635Z,50.98
2017-05-04T16:27:41.203Z,55.43
2017-05-04T16:30:08.723Z,47.45
2017-05-04T16:32:36.303Z,44.82
2017-05-04T16:35:03.881Z,43.47
2017-05-04T16:37:31.435Z,41.70
2017-05-04T16:39:59.035Z,40.57
2017-05-04T16:42:27.563Z,41.58
2017-05-04T16:44:55.346Z,42.80
2017-05-04T16:47:22.920Z,45.93
2017-05-04T16:49:51.462Z,47.03
2017-05-04T16:52:19.236Z,43.37
2017-05-04T16:54:47.262Z,47.30
2017-05-04T16:57:14.806Z,40.85
2017-05-04T16:59:43.191Z,40.42
2017-05-04T17:02:10.774Z,48.15
2017-05-04T17:04:38.333Z,36.78
2017-05-04T17:07:05.933Z,41.32
2017-05-04T17:09:33.492Z,42.52
2017-05-04T17:12:02.133Z,44.87
2017-05-04T17:14:29.918Z,41.28
2017-05-04T17:16:58.449Z,43.18
2017-05-04T17:19:25.987Z,46.50
2017-05-04T17:21:54.283Z,45.47
2017-05-04T17:24:21.835Z,46.35
2017-05-04T17:26:50.127Z,49.47
2017-05-04T17:29:17.658Z,48.47
2017-05-04T17:31:45.996Z,51.40
2017-05-04T17:34:13.776Z,47.27
2017-05-04T17:36:41.570Z,45.02
2017-05-04T17:39:09.974Z,47.67
2017-05-04T17:41:37.695Z,52.47
2017-05-04T17:44:06.036Z,52.60
2017-05-04T17:46:34.955Z,49.37
2017-05-04T17:49:03.306Z,53.53
2017-05-04T17:51:30.846Z,43.33
2017-05-04T17:53:58.404Z,40.55
2017-05-04T17:56:25.944Z,44.52
2017-05-04T17:58:53.474Z,45.18
2017-05-04T18:01:21.886Z,65.85
2017-05-04T18:03:49.664Z,58.47
2017-05-04T18:06:17.240Z,51.62
2017-05-04T18:08:45.108Z,55.87
2017-05-04T18:11:13.895Z,59.98
2017-05-04T18:13:41.528Z,54.20
2017-05-04T18:16:09.115Z,64.12
2017-05-04T18:18:36.703Z,56.65
2017-05-04T18:21:05.034Z,56.03
2017-05-04T18:23:32.621Z,61.20
2017-05-04T18:26:01.148Z,51.98
2017-05-04T18:28:28.687Z,53.47
2017-05-04T18:30:56.267Z,54.27
2017-05-04T18:33:24.089Z,56.15
2017-05-04T18:35:52.459Z,61.40
2017-05-04T18:38:20.996Z,57.25
2017-05-04T18:40:48.571Z,59.55
2017-05-04T18:43:16.184Z,65.85
2017-05-04T18:45:43.817Z,50.45
2017-05-04T18:48:12.358Z,64.33
2017-05-04T18:50:39.926Z,49.92
2017-05-04T18:53:07.567Z,55.62
2017-05-04T18:55:35.400Z,55.50
2017-05-04T18:58:03.147Z,62.72
2017-05-04T19:00:31.508Z,63.95
2017-05-04T19:02:59.077Z,43.60
2017-05-04T19:05:27.412Z,44.58
2017-05-04T19:07:55.309Z,52.80
2017-05-04T19:10:23.156Z,42.73
2017-05-04T19:12:50.938Z,40.73
2017-05-04T19:15:18.494Z,39.27
2017-05-04T19:17:47.040Z,41.95
2017-05-04T19:20:14.623Z,44.82
2017-05-04T19:22:42.166Z,47.68
2017-05-04T19:25:09.772Z,48.28
2017-05-04T19:27:38.867Z,51.32
2017-05-04T19:30:07.158Z,42.43
2017-05-04T19:32:34.819Z,49.57
2017-05-04T19:35:02.335Z,44.77
2017-05-04T19:37:29.901Z,52.83
2017-05-04T19:39:57.460Z,49.20
2017-05-04T19:42:25.010Z,55.18
2017-05-04T19:44:52.580Z,51.80
2017-05-04T19:47:20.893Z,48.87
2017-05-04T19:49:48.420Z,45.53
2017-05-04T19:52:16.003Z,43.18
2017-05-04T19:54:43.780Z,42.70
2017-05-04T19:57:11.351Z,40.92
2017-05-04T19:59:39.159Z,45.98
2017-05-04T20:02:07.466Z,47.75
2017-05-04T20:04:35.009Z,53.43
2017-05-04T20:07:03.247Z,45.92
2017-05-04T20:09:30.899Z,44.57
2017-05-04T20:11:58.643Z,49.90
2017-05-04T20:14:26.186Z,52.05
2017-05-04T20:16:53.708Z,43.73
2017-05-04T20:19:22.058Z,52.88
2017-05-04T20:21:49.809Z,44.60
2017-05-04T20:24:17.419Z,44.35
2017-05-04T20:26:44.934Z,38.15
2017-05-04T20:29:12.698Z,37.77
2017-05-04T20:31:40.263Z,34.55
2017-05-04T20:34:08.612Z,37.55
2017-05-04T20:36:36.134Z,39.13
2017-05-04T20:39:03.647Z,35.83
2017-05-04T20:41:31.474Z,39.08
2017-05-04T20:43:59.031Z,35.38
2017-05-04T20:46:26.579Z,34.33
2017-05-04T20:48:54.155Z,33.90
2017-05-04T20:51:21.686Z,27.30
2017-05-04T20:53:49.262Z,33.83
2017-05-04T20:56:16.803Z,37.95
2017-05-04T20:58:44.366Z,34.45
2017-05-04T21:01:11.912Z,28.48
2017-05-04T21:03:39.714Z,31.02
2017-05-04T21:06:07.275Z,31.23
2017-05-04T21:08:34.796Z,27.70
2017-05-04T21:11:02.343Z,28.68
2017-05-04T21:13:30.152Z,32.60
2017-05-04T21:15:57.838Z,31.08
2017-05-04T21:18:26.122Z,46.30
2017-05-04T21:20:53.672Z,53.40
2017-05-04T21:23:22.024Z,50.90
2017-05-04T21:25:49.586Z,50.72
2017-05-04T21:28:17.176Z,46.58
2017-05-04T21:30:45.481Z,65.10
2017-05-04T21:33:12.996Z,58.68
2017-05-04T21:35:41.344Z,40.23
2017-05-04T21:38:08.859Z,50.70
2017-05-04T21:40:36.445Z,62.23
2017-05-04T21:43:03.972Z,52.78
2017-05-04T21:45:31.975Z,45.12
2017-05-04T21:47:59.526Z,44.33
2017-05-04T21:50:27.046Z,47.23
2017-05-04T21:52:54.672Z,45.40
2017-05-04T21:55:22.301Z,46.18
2017-05-04T21:57:50.152Z,43.25
2017-05-04T22:00:17.711Z,49.00
2017-05-04T22:02:45.531Z,55.68
2017-05-04T22:05:13.271Z,48.53
2017-05-04T22:07:40.934Z,53.83
2017-05-04T22:10:08.475Z,43.88
2017-05-04T22:12:36.023Z,37.77
2017-05-04T22:15:03.643Z,47.38
2017-05-04T22:17:32.052Z,50.92
2017-05-04T22:19:59.614Z,54.20
2017-05-04T22:22:27.139Z,76.60
2017-05-04T22:24:54.839Z,58.35
2017-05-04T22:27:22.630Z,51.50
2017-05-04T22:29:50.498Z,60.75
2017-05-04T22:32:18.021Z,68.63
2017-05-04T22:34:46.078Z,55.28
2017-05-04T22:37:14.049Z,67.58
2017-05-04T22:39:41.589Z,77.47
2017-05-04T22:42:09.247Z,123.30
2017-05-04T22:44:36.839Z,95.18
2017-05-04T22:47:04.661Z,96.58
2017-05-04T22:49:33.104Z,116.33
2017-05-04T22:52:01.675Z,180.00
2017-05-04T22:54:29.478Z,129.73
2017-05-04T22:56:57.054Z,180.28
2017-05-04T22:59:24.874Z,202.13
2017-05-04T23:01:52.480Z,159.55
2017-05-04T23:04:20.007Z,131.67
2017-05-04T23:06:48.407Z,192.23
2017-05-04T23:09:16.099Z,159.03
2017-05-04T23:11:43.686Z,227.67
2017-05-04T23:14:11.339Z,232.74
2017-05-04T23:16:38.874Z,228.92
2017-05-04T23:19:06.642Z,218.40
2017-05-04T23:21:34.481Z,163.43
2017-05-04T23:24:02.015Z,130.27
2017-05-04T23:26:30.443Z,201.27
2017-05-04T23:28:58.061Z,132.65
2017-05-04T23:31:25.827Z,133.65
2017-05-04T23:33:53.616Z,132.57
2017-05-04T23:36:21.307Z,110.98
2017-05-04T23:38:50.147Z,91.40
2017-05-04T23:41:17.840Z,93.07
2017-05-04T23:43:45.675Z,132.77
2017-05-04T23:46:13.191Z,94.25
2017-05-04T23:48:41.517Z,87.78
2017-05-04T23:51:09.377Z,107.28
2017-05-04T23:53:37.246Z,75.45
2017-05-04T23:56:04.856Z,87.93
2017-05-04T23:58:33.462Z,66.52
